sensor_id;sensor_type;location;lat;lon;timestamp;P1;durP1;ratioP1;P2;durP2;ratioP2
38725;SDS011;24474;48.906;8.808;2024-01-11T00:01:10;42.40;;;23.30;;
38725;SDS011;24474;48.906;8.808;2024-01-11T00:03:36;45.20;;;24.75;;
38725;SDS011;24474;48.906;8.808;2024-01-11T00:06:01;42.88;;;23.05;;
38725;SDS011;24474;48.906;8.808;2024-01-11T00:08:29;41.92;;;23.73;;
38725;SDS011;24474;48.906;8.808;2024-01-11T00:10:55;42.83;;;23.98;;
38725;SDS011;24474;48.906;8.808;2024-01-11T00:13:20;44.28;;;23.05;;
38725;SDS011;24474;48.906;8.808;2024-01-11T00:15:46;43.13;;;23.38;;
38725;SDS011;24474;48.906;8.808;2024-01-11T00:18:12;40.85;;;21.92;;
38725;SDS011;24474;48.906;8.808;2024-01-11T00:20:38;41.78;;;23.98;;
38725;SDS011;24474;48.906;8.808;2024-01-11T00:23:03;38.85;;;22.67;;
38725;SDS011;24474;48.906;8.808;2024-01-11T00:25:29;42.15;;;24.00;;
38725;SDS011;24474;48.906;8.808;2024-01-11T00:27:54;41.38;;;23.00;;
38725;SDS011;24474;48.906;8.808;2024-01-11T00:30:20;43.85;;;23.45;;
38725;SDS011;24474;48.906;8.808;2024-01-11T00:32:46;42.78;;;23.67;;
38725;SDS011;24474;48.906;8.808;2024-01-11T00:35:11;47.10;;;24.42;;
38725;SDS011;24474;48.906;8.808;2024-01-11T00:37:37;39.80;;;23.15;;
38725;SDS011;24474;48.906;8.808;2024-01-11T00:40:02;46.15;;;24.40;;
38725;SDS011;24474;48.906;8.808;2024-01-11T00:42:29;47.47;;;25.38;;
38725;SDS011;24474;48.906;8.808;2024-01-11T00:44:55;45.35;;;24.70;;
38725;SDS011;24474;48.906;8.808;2024-01-11T00:47:20;53.15;;;26.90;;
38725;SDS011;24474;48.906;8.808;2024-01-11T00:49:46;50.33;;;26.20;;
38725;SDS011;24474;48.906;8.808;2024-01-11T00:52:12;47.70;;;26.20;;
38725;SDS011;24474;48.906;8.808;2024-01-11T00:54:39;46.00;;;25.85;;
38725;SDS011;24474;48.906;8.808;2024-01-11T00:57:04;43.80;;;25.23;;
38725;SDS011;24474;48.906;8.808;2024-01-11T00:59:30;44.17;;;25.35;;
38725;SDS011;24474;48.906;8.808;2024-01-11T01:01:55;46.05;;;25.80;;
38725;SDS011;24474;48.906;8.808;2024-01-11T01:04:21;41.08;;;24.35;;
38725;SDS011;24474;48.906;8.808;2024-01-11T01:06:47;43.38;;;25.35;;
38725;SDS011;24474;48.906;8.808;2024-01-11T01:09:12;43.63;;;24.60;;
38725;SDS011;24474;48.906;8.808;2024-01-11T01:11:38;46.08;;;24.95;;
38725;SDS011;24474;48.906;8.808;2024-01-11T01:14:04;40.22;;;23.45;;
38725;SDS011;24474;48.906;8.808;2024-01-11T01:16:30;42.17;;;23.75;;
38725;SDS011;24474;48.906;8.808;2024-01-11T01:18:56;46.03;;;24.67;;
38725;SDS011;24474;48.906;8.808;2024-01-11T01:21:21;44.38;;;24.08;;
38725;SDS011;24474;48.906;8.808;2024-01-11T01:23:47;41.42;;;22.52;;
38725;SDS011;24474;48.906;8.808;2024-01-11T01:26:13;47.22;;;24.05;;
38725;SDS011;24474;48.906;8.808;2024-01-11T01:28:38;45.88;;;23.80;;
38725;SDS011;24474;48.906;8.808;2024-01-11T01:31:05;47.47;;;24.73;;
38725;SDS011;24474;48.906;8.808;2024-01-11T01:33:31;44.05;;;24.58;;
38725;SDS011;24474;48.906;8.808;2024-01-11T01:35:56;51.00;;;25.33;;
38725;SDS011;24474;48.906;8.808;2024-01-11T01:38:22;47.55;;;23.90;;
38725;SDS011;24474;48.906;8.808;2024-01-11T01:40:48;49.25;;;23.92;;
38725;SDS011;24474;48.906;8.808;2024-01-11T01:43:13;46.35;;;24.80;;
38725;SDS011;24474;48.906;8.808;2024-01-11T01:45:39;43.60;;;24.55;;
38725;SDS011;24474;48.906;8.808;2024-01-11T01:48:05;43.95;;;24.52;;
38725;SDS011;24474;48.906;8.808;2024-01-11T01:50:32;46.05;;;24.15;;
38725;SDS011;24474;48.906;8.808;2024-01-11T01:52:58;43.45;;;23.67;;
38725;SDS011;24474;48.906;8.808;2024-01-11T01:55:25;43.60;;;24.77;;
38725;SDS011;24474;48.906;8.808;2024-01-11T01:57:51;43.13;;;22.30;;
38725;SDS011;24474;48.906;8.808;2024-01-11T02:00:18;42.15;;;22.60;;
38725;SDS011;24474;48.906;8.808;2024-01-11T02:02:44;39.42;;;23.67;;
38725;SDS011;24474;48.906;8.808;2024-01-11T02:07:41;41.70;;;23.00;;
38725;SDS011;24474;48.906;8.808;2024-01-11T02:10:07;45.05;;;23.75;;
38725;SDS011;24474;48.906;8.808;2024-01-11T02:12:35;48.15;;;24.73;;
38725;SDS011;24474;48.906;8.808;2024-01-11T02:15:02;40.13;;;22.75;;
38725;SDS011;24474;48.906;8.808;2024-01-11T02:17:29;38.95;;;22.77;;
38725;SDS011;24474;48.906;8.808;2024-01-11T02:19:55;44.08;;;23.02;;
38725;SDS011;24474;48.906;8.808;2024-01-11T02:22:25;41.90;;;23.80;;
38725;SDS011;24474;48.906;8.808;2024-01-11T02:24:55;45.92;;;23.92;;
38725;SDS011;24474;48.906;8.808;2024-01-11T02:27:22;46.03;;;24.83;;
38725;SDS011;24474;48.906;8.808;2024-01-11T02:29:48;45.85;;;25.17;;
38725;SDS011;24474;48.906;8.808;2024-01-11T02:32:14;41.80;;;23.38;;
38725;SDS011;24474;48.906;8.808;2024-01-11T02:34:41;45.05;;;26.38;;
38725;SDS011;24474;48.906;8.808;2024-01-11T02:37:07;39.58;;;22.60;;
38725;SDS011;24474;48.906;8.808;2024-01-11T02:39:33;47.03;;;25.15;;
38725;SDS011;24474;48.906;8.808;2024-01-11T02:41:59;59.00;;;28.83;;
38725;SDS011;24474;48.906;8.808;2024-01-11T02:44:25;54.63;;;28.02;;
38725;SDS011;24474;48.906;8.808;2024-01-11T02:46:51;45.78;;;25.27;;
38725;SDS011;24474;48.906;8.808;2024-01-11T02:49:17;40.10;;;23.55;;
38725;SDS011;24474;48.906;8.808;2024-01-11T02:51:42;41.45;;;23.35;;
38725;SDS011;24474;48.906;8.808;2024-01-11T02:54:08;44.47;;;24.58;;
38725;SDS011;24474;48.906;8.808;2024-01-11T02:56:34;44.40;;;24.60;;
38725;SDS011;24474;48.906;8.808;2024-01-11T02:58:59;43.95;;;24.02;;
38725;SDS011;24474;48.906;8.808;2024-01-11T03:01:25;48.90;;;23.65;;
38725;SDS011;24474;48.906;8.808;2024-01-11T03:03:51;48.50;;;25.67;;
38725;SDS011;24474;48.906;8.808;2024-01-11T03:06:16;41.35;;;24.23;;
38725;SDS011;24474;48.906;8.808;2024-01-11T03:08:46;45.60;;;25.20;;
38725;SDS011;24474;48.906;8.808;2024-01-11T03:11:13;46.97;;;24.83;;
38725;SDS011;24474;48.906;8.808;2024-01-11T03:13:39;42.08;;;23.05;;
38725;SDS011;24474;48.906;8.808;2024-01-11T03:16:04;42.55;;;24.02;;
38725;SDS011;24474;48.906;8.808;2024-01-11T03:18:30;46.42;;;24.73;;
38725;SDS011;24474;48.906;8.808;2024-01-11T03:20:57;46.08;;;25.02;;
38725;SDS011;24474;48.906;8.808;2024-01-11T03:23:25;42.20;;;22.98;;
38725;SDS011;24474;48.906;8.808;2024-01-11T03:25:51;40.20;;;23.20;;
38725;SDS011;24474;48.906;8.808;2024-01-11T03:28:17;42.45;;;23.30;;
38725;SDS011;24474;48.906;8.808;2024-01-11T03:30:43;39.08;;;22.85;;
38725;SDS011;24474;48.906;8.808;2024-01-11T03:33:08;50.80;;;24.20;;
38725;SDS011;24474;48.906;8.808;2024-01-11T03:35:34;44.13;;;23.92;;
38725;SDS011;24474;48.906;8.808;2024-01-11T03:38:00;43.65;;;24.40;;
38725;SDS011;24474;48.906;8.808;2024-01-11T03:40:25;45.63;;;24.05;;
38725;SDS011;24474;48.906;8.808;2024-01-11T03:42:51;42.42;;;24.15;;
38725;SDS011;24474;48.906;8.808;2024-01-11T03:45:17;43.75;;;22.90;;
38725;SDS011;24474;48.906;8.808;2024-01-11T03:47:46;40.33;;;21.95;;
38725;SDS011;24474;48.906;8.808;2024-01-11T03:50:12;38.17;;;22.50;;
38725;SDS011;24474;48.906;8.808;2024-01-11T03:52:38;40.40;;;22.60;;
38725;SDS011;24474;48.906;8.808;2024-01-11T03:55:04;42.10;;;23.10;;
38725;SDS011;24474;48.906;8.808;2024-01-11T03:57:31;38.97;;;21.75;;
38725;SDS011;24474;48.906;8.808;2024-01-11T03:59:56;40.92;;;23.38;;
38725;SDS011;24474;48.906;8.808;2024-01-11T04:02:23;44.63;;;24.23;;
38725;SDS011;24474;48.906;8.808;2024-01-11T04:04:49;41.00;;;23.20;;
38725;SDS011;24474;48.906;8.808;2024-01-11T04:07:15;39.20;;;22.48;;
38725;SDS011;24474;48.906;8.808;2024-01-11T04:09:42;47.28;;;24.63;;
38725;SDS011;24474;48.906;8.808;2024-01-11T04:12:08;44.63;;;23.63;;
38725;SDS011;24474;48.906;8.808;2024-01-11T04:14:33;44.05;;;22.40;;
38725;SDS011;24474;48.906;8.808;2024-01-11T04:17:04;44.55;;;23.10;;
38725;SDS011;24474;48.906;8.808;2024-01-11T04:19:30;44.53;;;22.77;;
38725;SDS011;24474;48.906;8.808;2024-01-11T04:21:55;45.50;;;24.52;;
38725;SDS011;24474;48.906;8.808;2024-01-11T04:24:21;38.17;;;23.60;;
38725;SDS011;24474;48.906;8.808;2024-01-11T04:26:46;44.22;;;24.25;;
38725;SDS011;24474;48.906;8.808;2024-01-11T04:29:12;42.13;;;22.90;;
38725;SDS011;24474;48.906;8.808;2024-01-11T04:31:37;39.63;;;23.27;;
38725;SDS011;24474;48.906;8.808;2024-01-11T04:34:03;39.35;;;22.48;;
38725;SDS011;24474;48.906;8.808;2024-01-11T04:36:29;44.80;;;23.58;;
38725;SDS011;24474;48.906;8.808;2024-01-11T04:38:54;39.00;;;23.33;;
38725;SDS011;24474;48.906;8.808;2024-01-11T04:41:20;45.08;;;23.55;;
38725;SDS011;24474;48.906;8.808;2024-01-11T04:43:46;40.78;;;22.27;;
38725;SDS011;24474;48.906;8.808;2024-01-11T04:46:21;44.95;;;24.92;;
38725;SDS011;24474;48.906;8.808;2024-01-11T04:48:48;49.95;;;26.73;;
38725;SDS011;24474;48.906;8.808;2024-01-11T04:51:15;48.03;;;25.27;;
38725;SDS011;24474;48.906;8.808;2024-01-11T04:53:41;53.60;;;26.55;;
38725;SDS011;24474;48.906;8.808;2024-01-11T04:56:09;47.40;;;25.65;;
38725;SDS011;24474;48.906;8.808;2024-01-11T04:58:36;52.13;;;25.73;;
38725;SDS011;24474;48.906;8.808;2024-01-11T05:01:05;45.28;;;24.58;;
38725;SDS011;24474;48.906;8.808;2024-01-11T05:03:31;46.67;;;24.50;;
38725;SDS011;24474;48.906;8.808;2024-01-11T05:05:57;46.17;;;24.90;;
38725;SDS011;24474;48.906;8.808;2024-01-11T05:08:23;48.75;;;26.35;;
38725;SDS011;24474;48.906;8.808;2024-01-11T05:10:50;46.88;;;24.48;;
38725;SDS011;24474;48.906;8.808;2024-01-11T05:13:16;44.50;;;23.83;;
38725;SDS011;24474;48.906;8.808;2024-01-11T05:15:42;41.22;;;22.42;;
38725;SDS011;24474;48.906;8.808;2024-01-11T05:18:08;41.67;;;23.92;;
38725;SDS011;24474;48.906;8.808;2024-01-11T05:20:34;46.97;;;24.30;;
38725;SDS011;24474;48.906;8.808;2024-01-11T05:22:59;41.95;;;23.13;;
38725;SDS011;24474;48.906;8.808;2024-01-11T05:25:26;48.25;;;24.88;;
38725;SDS011;24474;48.906;8.808;2024-01-11T05:27:52;44.42;;;23.17;;
38725;SDS011;24474;48.906;8.808;2024-01-11T05:30:17;44.83;;;25.27;;
38725;SDS011;24474;48.906;8.808;2024-01-11T05:32:43;48.28;;;26.88;;
38725;SDS011;24474;48.906;8.808;2024-01-11T05:35:09;45.25;;;25.95;;
38725;SDS011;24474;48.906;8.808;2024-01-11T05:37:37;47.00;;;26.45;;
38725;SDS011;24474;48.906;8.808;2024-01-11T05:40:03;49.90;;;26.05;;
38725;SDS011;24474;48.906;8.808;2024-01-11T05:42:29;48.60;;;25.35;;
38725;SDS011;24474;48.906;8.808;2024-01-11T05:44:55;51.58;;;29.13;;
38725;SDS011;24474;48.906;8.808;2024-01-11T05:47:21;59.13;;;31.90;;
38725;SDS011;24474;48.906;8.808;2024-01-11T05:49:47;68.50;;;35.78;;
38725;SDS011;24474;48.906;8.808;2024-01-11T05:52:13;66.35;;;35.38;;
38725;SDS011;24474;48.906;8.808;2024-01-11T05:54:38;55.13;;;29.90;;
38725;SDS011;24474;48.906;8.808;2024-01-11T05:57:04;66.45;;;30.70;;
38725;SDS011;24474;48.906;8.808;2024-01-11T05:59:29;71.75;;;37.35;;
38725;SDS011;24474;48.906;8.808;2024-01-11T06:01:55;61.65;;;31.33;;
38725;SDS011;24474;48.906;8.808;2024-01-11T06:04:25;62.80;;;33.47;;
38725;SDS011;24474;48.906;8.808;2024-01-11T06:06:52;57.83;;;29.58;;
38725;SDS011;24474;48.906;8.808;2024-01-11T06:09:17;60.55;;;28.83;;
38725;SDS011;24474;48.906;8.808;2024-01-11T06:11:43;64.78;;;30.75;;
38725;SDS011;24474;48.906;8.808;2024-01-11T06:14:09;65.20;;;29.15;;
38725;SDS011;24474;48.906;8.808;2024-01-11T06:16:34;67.22;;;29.67;;
38725;SDS011;24474;48.906;8.808;2024-01-11T06:19:00;64.80;;;29.08;;
38725;SDS011;24474;48.906;8.808;2024-01-11T06:21:26;60.33;;;29.27;;
38725;SDS011;24474;48.906;8.808;2024-01-11T06:23:51;64.53;;;29.48;;
38725;SDS011;24474;48.906;8.808;2024-01-11T06:26:17;55.15;;;27.10;;
38725;SDS011;24474;48.906;8.808;2024-01-11T06:28:42;49.03;;;27.33;;
38725;SDS011;24474;48.906;8.808;2024-01-11T06:31:11;50.65;;;28.25;;
38725;SDS011;24474;48.906;8.808;2024-01-11T06:33:37;49.00;;;27.98;;
38725;SDS011;24474;48.906;8.808;2024-01-11T06:36:05;49.67;;;26.73;;
38725;SDS011;24474;48.906;8.808;2024-01-11T06:38:31;50.50;;;26.70;;
38725;SDS011;24474;48.906;8.808;2024-01-11T06:40:57;49.40;;;26.10;;
38725;SDS011;24474;48.906;8.808;2024-01-11T06:43:22;45.67;;;24.73;;
38725;SDS011;24474;48.906;8.808;2024-01-11T06:45:48;47.03;;;25.58;;
38725;SDS011;24474;48.906;8.808;2024-01-11T06:48:14;48.38;;;25.15;;
38725;SDS011;24474;48.906;8.808;2024-01-11T06:50:39;48.85;;;25.80;;
38725;SDS011;24474;48.906;8.808;2024-01-11T06:53:05;46.55;;;25.38;;
38725;SDS011;24474;48.906;8.808;2024-01-11T06:55:30;48.50;;;24.25;;
38725;SDS011;24474;48.906;8.808;2024-01-11T06:57:59;53.20;;;26.95;;
38725;SDS011;24474;48.906;8.808;2024-01-11T07:00:26;56.65;;;29.90;;
38725;SDS011;24474;48.906;8.808;2024-01-11T07:02:53;54.38;;;30.40;;
38725;SDS011;24474;48.906;8.808;2024-01-11T07:05:19;55.55;;;27.67;;
38725;SDS011;24474;48.906;8.808;2024-01-11T07:07:45;50.38;;;28.73;;
38725;SDS011;24474;48.906;8.808;2024-01-11T07:10:12;53.55;;;29.92;;
38725;SDS011;24474;48.906;8.808;2024-01-11T07:12:38;49.30;;;26.52;;
38725;SDS011;24474;48.906;8.808;2024-01-11T07:15:06;52.92;;;26.67;;
38725;SDS011;24474;48.906;8.808;2024-01-11T07:17:33;55.33;;;27.00;;
38725;SDS011;24474;48.906;8.808;2024-01-11T07:19:59;58.28;;;31.08;;
38725;SDS011;24474;48.906;8.808;2024-01-11T07:22:24;60.28;;;29.17;;
38725;SDS011;24474;48.906;8.808;2024-01-11T07:24:50;63.30;;;32.58;;
38725;SDS011;24474;48.906;8.808;2024-01-11T07:27:15;57.67;;;30.35;;
38725;SDS011;24474;48.906;8.808;2024-01-11T07:29:41;60.30;;;30.45;;
38725;SDS011;24474;48.906;8.808;2024-01-11T07:32:06;56.50;;;30.58;;
38725;SDS011;24474;48.906;8.808;2024-01-11T07:34:33;58.08;;;30.55;;
38725;SDS011;24474;48.906;8.808;2024-01-11T07:36:59;64.28;;;31.13;;
38725;SDS011;24474;48.906;8.808;2024-01-11T07:39:24;62.22;;;31.50;;
38725;SDS011;24474;48.906;8.808;2024-01-11T07:41:50;59.35;;;31.15;;
38725;SDS011;24474;48.906;8.808;2024-01-11T07:44:17;57.05;;;31.42;;
38725;SDS011;24474;48.906;8.808;2024-01-11T07:46:43;55.45;;;28.75;;
38725;SDS011;24474;48.906;8.808;2024-01-11T07:49:09;47.80;;;24.90;;
38725;SDS011;24474;48.906;8.808;2024-01-11T07:51:35;50.13;;;26.48;;
38725;SDS011;24474;48.906;8.808;2024-01-11T07:54:00;52.03;;;27.83;;
38725;SDS011;24474;48.906;8.808;2024-01-11T07:56:27;58.17;;;29.63;;
38725;SDS011;24474;48.906;8.808;2024-01-11T07:58:53;54.42;;;28.60;;
38725;SDS011;24474;48.906;8.808;2024-01-11T08:01:18;56.08;;;29.80;;
38725;SDS011;24474;48.906;8.808;2024-01-11T08:03:45;57.20;;;31.27;;
38725;SDS011;24474;48.906;8.808;2024-01-11T08:06:10;64.13;;;32.67;;
38725;SDS011;24474;48.906;8.808;2024-01-11T08:08:39;62.50;;;33.95;;
38725;SDS011;24474;48.906;8.808;2024-01-11T08:11:06;61.63;;;34.40;;
38725;SDS011;24474;48.906;8.808;2024-01-11T08:13:32;65.55;;;34.40;;
38725;SDS011;24474;48.906;8.808;2024-01-11T08:16:01;66.15;;;34.88;;
38725;SDS011;24474;48.906;8.808;2024-01-11T08:18:33;59.42;;;33.05;;
38725;SDS011;24474;48.906;8.808;2024-01-11T08:20:58;55.70;;;30.77;;
38725;SDS011;24474;48.906;8.808;2024-01-11T08:23:24;60.35;;;31.17;;
38725;SDS011;24474;48.906;8.808;2024-01-11T08:25:50;53.55;;;30.73;;
38725;SDS011;24474;48.906;8.808;2024-01-11T08:28:17;54.78;;;29.50;;
38725;SDS011;24474;48.906;8.808;2024-01-11T08:30:43;56.50;;;31.27;;
38725;SDS011;24474;48.906;8.808;2024-01-11T08:33:09;57.42;;;30.33;;
38725;SDS011;24474;48.906;8.808;2024-01-11T08:35:35;66.70;;;34.03;;
38725;SDS011;24474;48.906;8.808;2024-01-11T08:38:02;84.18;;;39.80;;
38725;SDS011;24474;48.906;8.808;2024-01-11T08:40:29;85.10;;;41.22;;
38725;SDS011;24474;48.906;8.808;2024-01-11T08:42:55;79.28;;;39.38;;
38725;SDS011;24474;48.906;8.808;2024-01-11T08:45:20;69.82;;;36.90;;
38725;SDS011;24474;48.906;8.808;2024-01-11T08:47:47;57.35;;;30.42;;
38725;SDS011;24474;48.906;8.808;2024-01-11T08:50:13;51.22;;;29.00;;
38725;SDS011;24474;48.906;8.808;2024-01-11T08:52:40;53.70;;;29.00;;
38725;SDS011;24474;48.906;8.808;2024-01-11T08:55:06;47.75;;;26.23;;
38725;SDS011;24474;48.906;8.808;2024-01-11T08:57:32;51.65;;;27.30;;
38725;SDS011;24474;48.906;8.808;2024-01-11T09:00:00;50.22;;;26.83;;
38725;SDS011;24474;48.906;8.808;2024-01-11T09:02:31;53.75;;;27.90;;
38725;SDS011;24474;48.906;8.808;2024-01-11T09:04:56;45.42;;;25.25;;
38725;SDS011;24474;48.906;8.808;2024-01-11T09:07:22;47.65;;;24.98;;
38725;SDS011;24474;48.906;8.808;2024-01-11T09:09:48;44.45;;;25.45;;
38725;SDS011;24474;48.906;8.808;2024-01-11T09:12:13;43.35;;;24.70;;
38725;SDS011;24474;48.906;8.808;2024-01-11T09:14:39;42.95;;;24.58;;
38725;SDS011;24474;48.906;8.808;2024-01-11T09:17:04;44.47;;;24.67;;
38725;SDS011;24474;48.906;8.808;2024-01-11T09:19:32;41.42;;;23.90;;
38725;SDS011;24474;48.906;8.808;2024-01-11T09:22:00;42.85;;;23.65;;
38725;SDS011;24474;48.906;8.808;2024-01-11T09:24:26;41.03;;;23.35;;
38725;SDS011;24474;48.906;8.808;2024-01-11T09:26:51;47.33;;;24.73;;
38725;SDS011;24474;48.906;8.808;2024-01-11T09:29:17;42.65;;;24.38;;
38725;SDS011;24474;48.906;8.808;2024-01-11T09:31:42;40.47;;;22.95;;
38725;SDS011;24474;48.906;8.808;2024-01-11T09:34:08;42.75;;;22.90;;
38725;SDS011;24474;48.906;8.808;2024-01-11T09:36:34;41.42;;;23.85;;
38725;SDS011;24474;48.906;8.808;2024-01-11T09:39:03;46.28;;;24.45;;
38725;SDS011;24474;48.906;8.808;2024-01-11T09:41:30;49.58;;;27.23;;
38725;SDS011;24474;48.906;8.808;2024-01-11T09:44:00;48.08;;;25.77;;
38725;SDS011;24474;48.906;8.808;2024-01-11T09:46:28;43.85;;;24.98;;
38725;SDS011;24474;48.906;8.808;2024-01-11T09:48:56;42.50;;;23.90;;
38725;SDS011;24474;48.906;8.808;2024-01-11T09:51:25;47.35;;;26.17;;
38725;SDS011;24474;48.906;8.808;2024-01-11T09:53:53;41.30;;;24.48;;
38725;SDS011;24474;48.906;8.808;2024-01-11T09:56:23;43.83;;;24.13;;
38725;SDS011;24474;48.906;8.808;2024-01-11T09:58:50;43.95;;;23.70;;
38725;SDS011;24474;48.906;8.808;2024-01-11T10:01:15;42.40;;;23.30;;
38725;SDS011;24474;48.906;8.808;2024-01-11T10:03:43;41.70;;;23.35;;
38725;SDS011;24474;48.906;8.808;2024-01-11T10:06:11;45.38;;;24.40;;
38725;SDS011;24474;48.906;8.808;2024-01-11T10:08:37;42.00;;;24.48;;
38725;SDS011;24474;48.906;8.808;2024-01-11T10:11:03;41.05;;;23.55;;
38725;SDS011;24474;48.906;8.808;2024-01-11T10:13:29;45.85;;;24.02;;
38725;SDS011;24474;48.906;8.808;2024-01-11T10:16:05;40.60;;;23.88;;
38725;SDS011;24474;48.906;8.808;2024-01-11T10:18:35;47.13;;;24.98;;
38725;SDS011;24474;48.906;8.808;2024-01-11T10:21:02;44.70;;;24.90;;
38725;SDS011;24474;48.906;8.808;2024-01-11T10:23:28;42.13;;;24.85;;
38725;SDS011;24474;48.906;8.808;2024-01-11T10:25:57;45.50;;;25.05;;
38725;SDS011;24474;48.906;8.808;2024-01-11T10:28:24;45.42;;;26.15;;
38725;SDS011;24474;48.906;8.808;2024-01-11T10:30:51;47.50;;;26.23;;
38725;SDS011;24474;48.906;8.808;2024-01-11T10:33:21;41.10;;;24.38;;
38725;SDS011;24474;48.906;8.808;2024-01-11T10:35:50;41.97;;;24.65;;
38725;SDS011;24474;48.906;8.808;2024-01-11T10:38:16;46.78;;;26.65;;
38725;SDS011;24474;48.906;8.808;2024-01-11T10:40:42;47.72;;;26.27;;
38725;SDS011;24474;48.906;8.808;2024-01-11T10:43:09;45.10;;;25.55;;
38725;SDS011;24474;48.906;8.808;2024-01-11T10:45:40;46.40;;;24.85;;
38725;SDS011;24474;48.906;8.808;2024-01-11T10:48:13;46.72;;;26.00;;
38725;SDS011;24474;48.906;8.808;2024-01-11T10:50:43;46.10;;;25.80;;
38725;SDS011;24474;48.906;8.808;2024-01-11T10:56:04;46.15;;;24.80;;
38725;SDS011;24474;48.906;8.808;2024-01-11T10:58:34;44.92;;;25.67;;
38725;SDS011;24474;48.906;8.808;2024-01-11T11:01:03;42.75;;;25.70;;
38725;SDS011;24474;48.906;8.808;2024-01-11T11:03:31;43.40;;;25.80;;
38725;SDS011;24474;48.906;8.808;2024-01-11T11:05:59;47.45;;;26.55;;
38725;SDS011;24474;48.906;8.808;2024-01-11T11:08:25;49.55;;;26.83;;
38725;SDS011;24474;48.906;8.808;2024-01-11T11:10:56;43.65;;;26.00;;
38725;SDS011;24474;48.906;8.808;2024-01-11T11:13:23;48.25;;;25.95;;
38725;SDS011;24474;48.906;8.808;2024-01-11T11:15:49;42.80;;;24.52;;
38725;SDS011;24474;48.906;8.808;2024-01-11T11:18:15;43.63;;;24.92;;
38725;SDS011;24474;48.906;8.808;2024-01-11T11:20:41;47.50;;;26.15;;
38725;SDS011;24474;48.906;8.808;2024-01-11T11:23:08;45.95;;;26.98;;
38725;SDS011;24474;48.906;8.808;2024-01-11T11:25:36;46.05;;;25.73;;
38725;SDS011;24474;48.906;8.808;2024-01-11T11:28:02;47.25;;;25.55;;
38725;SDS011;24474;48.906;8.808;2024-01-11T11:30:40;45.35;;;26.00;;
38725;SDS011;24474;48.906;8.808;2024-01-11T11:33:10;43.75;;;25.42;;
38725;SDS011;24474;48.906;8.808;2024-01-11T11:35:41;47.35;;;26.13;;
38725;SDS011;24474;48.906;8.808;2024-01-11T11:38:16;49.63;;;25.88;;
38725;SDS011;24474;48.906;8.808;2024-01-11T11:40:54;44.42;;;25.38;;
38725;SDS011;24474;48.906;8.808;2024-01-11T11:43:22;46.17;;;27.50;;
38725;SDS011;24474;48.906;8.808;2024-01-11T11:45:50;42.22;;;25.70;;
38725;SDS011;24474;48.906;8.808;2024-01-11T11:51:10;43.90;;;25.15;;
38725;SDS011;24474;48.906;8.808;2024-01-11T11:53:37;45.42;;;25.20;;
38725;SDS011;24474;48.906;8.808;2024-01-11T11:56:04;48.60;;;25.65;;
38725;SDS011;24474;48.906;8.808;2024-01-11T11:58:30;46.15;;;25.52;;
38725;SDS011;24474;48.906;8.808;2024-01-11T12:01:00;43.40;;;25.80;;
38725;SDS011;24474;48.906;8.808;2024-01-11T12:03:28;45.65;;;26.13;;
38725;SDS011;24474;48.906;8.808;2024-01-11T12:05:56;46.25;;;26.42;;
38725;SDS011;24474;48.906;8.808;2024-01-11T12:08:23;45.08;;;26.13;;
38725;SDS011;24474;48.906;8.808;2024-01-11T12:10:49;46.00;;;26.73;;
38725;SDS011;24474;48.906;8.808;2024-01-11T12:13:16;49.17;;;26.55;;
38725;SDS011;24474;48.906;8.808;2024-01-11T12:15:42;44.42;;;26.83;;
38725;SDS011;24474;48.906;8.808;2024-01-11T12:18:08;44.45;;;27.30;;
38725;SDS011;24474;48.906;8.808;2024-01-11T12:20:34;43.40;;;26.75;;
38725;SDS011;24474;48.906;8.808;2024-01-11T12:23:00;43.83;;;26.33;;
38725;SDS011;24474;48.906;8.808;2024-01-11T12:25:27;44.72;;;26.35;;
38725;SDS011;24474;48.906;8.808;2024-01-11T12:27:53;46.22;;;26.38;;
38725;SDS011;24474;48.906;8.808;2024-01-11T12:30:23;49.05;;;26.98;;
38725;SDS011;24474;48.906;8.808;2024-01-11T12:32:50;39.78;;;24.42;;
38725;SDS011;24474;48.906;8.808;2024-01-11T12:35:16;41.78;;;25.73;;
38725;SDS011;24474;48.906;8.808;2024-01-11T12:37:55;46.00;;;27.00;;
38725;SDS011;24474;48.906;8.808;2024-01-11T12:42:49;42.47;;;24.85;;
38725;SDS011;24474;48.906;8.808;2024-01-11T12:45:15;45.45;;;26.50;;
38725;SDS011;24474;48.906;8.808;2024-01-11T12:47:42;45.67;;;26.38;;
38725;SDS011;24474;48.906;8.808;2024-01-11T12:50:08;43.75;;;25.13;;
38725;SDS011;24474;48.906;8.808;2024-01-11T12:52:34;45.20;;;26.08;;
38725;SDS011;24474;48.906;8.808;2024-01-11T12:55:00;45.63;;;25.73;;
38725;SDS011;24474;48.906;8.808;2024-01-11T12:57:27;41.58;;;25.77;;
38725;SDS011;24474;48.906;8.808;2024-01-11T13:00:08;45.88;;;25.80;;
38725;SDS011;24474;48.906;8.808;2024-01-11T13:02:38;45.80;;;26.13;;
38725;SDS011;24474;48.906;8.808;2024-01-11T13:05:05;42.63;;;25.00;;
38725;SDS011;24474;48.906;8.808;2024-01-11T13:07:32;41.85;;;24.98;;
38725;SDS011;24474;48.906;8.808;2024-01-11T13:10:04;44.55;;;25.65;;
38725;SDS011;24474;48.906;8.808;2024-01-11T13:12:30;43.03;;;25.17;;
38725;SDS011;24474;48.906;8.808;2024-01-11T13:14:56;43.63;;;25.67;;
38725;SDS011;24474;48.906;8.808;2024-01-11T13:17:22;43.15;;;25.15;;
38725;SDS011;24474;48.906;8.808;2024-01-11T13:19:47;43.13;;;23.98;;
38725;SDS011;24474;48.906;8.808;2024-01-11T13:22:13;46.38;;;25.77;;
38725;SDS011;24474;48.906;8.808;2024-01-11T13:24:39;43.45;;;26.38;;
38725;SDS011;24474;48.906;8.808;2024-01-11T13:27:05;44.35;;;25.60;;
38725;SDS011;24474;48.906;8.808;2024-01-11T13:29:31;39.33;;;24.65;;
38725;SDS011;24474;48.906;8.808;2024-01-11T13:31:56;44.42;;;26.50;;
38725;SDS011;24474;48.906;8.808;2024-01-11T13:34:25;39.30;;;23.60;;
38725;SDS011;24474;48.906;8.808;2024-01-11T13:36:52;39.13;;;23.08;;
38725;SDS011;24474;48.906;8.808;2024-01-11T13:39:19;42.13;;;25.02;;
38725;SDS011;24474;48.906;8.808;2024-01-11T13:41:45;42.65;;;25.20;;
38725;SDS011;24474;48.906;8.808;2024-01-11T13:44:11;44.08;;;24.95;;
38725;SDS011;24474;48.906;8.808;2024-01-11T13:46:37;44.28;;;25.77;;
38725;SDS011;24474;48.906;8.808;2024-01-11T13:49:03;40.55;;;24.85;;
38725;SDS011;24474;48.906;8.808;2024-01-11T13:51:29;36.97;;;23.23;;
38725;SDS011;24474;48.906;8.808;2024-01-11T13:53:57;42.97;;;25.25;;
38725;SDS011;24474;48.906;8.808;2024-01-11T13:56:24;37.35;;;22.60;;
38725;SDS011;24474;48.906;8.808;2024-01-11T13:58:50;44.50;;;25.02;;
38725;SDS011;24474;48.906;8.808;2024-01-11T14:01:15;41.25;;;24.17;;
38725;SDS011;24474;48.906;8.808;2024-01-11T14:03:41;39.65;;;24.55;;
38725;SDS011;24474;48.906;8.808;2024-01-11T14:06:07;39.83;;;24.88;;
38725;SDS011;24474;48.906;8.808;2024-01-11T14:08:32;42.75;;;25.20;;
38725;SDS011;24474;48.906;8.808;2024-01-11T14:10:58;43.47;;;26.10;;
38725;SDS011;24474;48.906;8.808;2024-01-11T14:13:23;43.65;;;25.30;;
38725;SDS011;24474;48.906;8.808;2024-01-11T14:15:49;40.92;;;25.42;;
38725;SDS011;24474;48.906;8.808;2024-01-11T14:18:16;43.97;;;25.48;;
38725;SDS011;24474;48.906;8.808;2024-01-11T14:20:43;42.33;;;26.30;;
38725;SDS011;24474;48.906;8.808;2024-01-11T14:23:10;40.63;;;26.13;;
38725;SDS011;24474;48.906;8.808;2024-01-11T14:25:50;43.58;;;25.42;;
38725;SDS011;24474;48.906;8.808;2024-01-11T14:28:15;42.35;;;25.88;;